KDTW

Detroit Metropolitan Wayne County Airport

Code ICAO KDTW
Code IATA DTW
Nom Detroit Metropolitan Wayne County Airport
Emplacement Detroit, Michigan, US
Élévation 645 pieds / 196.6 mètres
Latitude 42.21239853
Longitude -83.35340118
METAR KDTW 240036Z 26010KT 8SM BKN008 OVC016 11/10 A2981 RMK AO2 RAE21DZB30E36 P0000 T01110100
Informations extras Afficher cartes et CFS
Afficher NOTAMS
Piste Longueur Largeur Surface Élévation
03L 8501 ft 200 ft PEM 636 ft
03R 10001 ft 150 ft CON 633 ft
04L 10000 ft 150 ft CON 645 ft
04R 12003 ft 200 ft CON 637 ft
09L 8708 ft 200 ft PEM 638 ft
09R 8500 ft 150 ft CON 636 ft
21R 8501 ft 200 ft PEM 632 ft
21L 10001 ft 150 ft CON 632 ft
22R 10000 ft 150 ft CON 642 ft
22L 12003 ft 200 ft CON 636 ft
27R 8708 ft 200 ft PEM 635 ft
27L 8500 ft 150 ft CON 629 ft